sensor_id;sensor_type;location;lat;lon;timestamp;pressure;altitude;pressure_sealevel;temperature
48628;BMP280;34424;52.234;6.500;2023-06-10T00:00:27;101440.8;;;17.39
48628;BMP280;34424;52.234;6.500;2023-06-10T00:05:27;101457.5;;;17.43
48628;BMP280;34424;52.234;6.500;2023-06-10T00:10:27;101454.4;;;17.3
48628;BMP280;34424;52.234;6.500;2023-06-10T00:15:27;101454.6;;;17.17
48628;BMP280;34424;52.234;6.500;2023-06-10T00:20:27;101457.8;;;17.02
48628;BMP280;34424;52.234;6.500;2023-06-10T00:25:27;101456.7;;;16.85
48628;BMP280;34424;52.234;6.500;2023-06-10T00:30:27;101446.1;;;16.6
48628;BMP280;34424;52.234;6.500;2023-06-10T00:35:27;101451.1;;;16.57
48628;BMP280;34424;52.234;6.500;2023-06-10T00:40:27;101454.9;;;16.5
48628;BMP280;34424;52.234;6.500;2023-06-10T00:45:27;101460.3;;;16.46
48628;BMP280;34424;52.234;6.500;2023-06-10T00:50:27;101456.8;;;16.51
48628;BMP280;34424;52.234;6.500;2023-06-10T00:55:27;101461.3;;;16.48
48628;BMP280;34424;52.234;6.500;2023-06-10T01:00:27;101463.9;;;16.36
48628;BMP280;34424;52.234;6.500;2023-06-10T01:05:27;101453.7;;;16.19
48628;BMP280;34424;52.234;6.500;2023-06-10T01:10:29;101456.4;;;16.04
48628;BMP280;34424;52.234;6.500;2023-06-10T01:15:27;101461.8;;;15.87
48628;BMP280;34424;52.234;6.500;2023-06-10T01:20:27;101467.4;;;15.72
48628;BMP280;34424;52.234;6.500;2023-06-10T01:25:27;101469.8;;;15.63
48628;BMP280;34424;52.234;6.500;2023-06-10T01:30:28;101472;;;15.54
48628;BMP280;34424;52.234;6.500;2023-06-10T01:35:27;101467;;;15.47
48628;BMP280;34424;52.234;6.500;2023-06-10T01:40:27;101473.2;;;15.44
48628;BMP280;34424;52.234;6.500;2023-06-10T01:45:27;101472.9;;;15.38
48628;BMP280;34424;52.234;6.500;2023-06-10T01:50:27;101479.9;;;15.26
48628;BMP280;34424;52.234;6.500;2023-06-10T01:55:27;101479.8;;;15.18
48628;BMP280;34424;52.234;6.500;2023-06-10T02:00:27;101478;;;15.11
48628;BMP280;34424;52.234;6.500;2023-06-10T02:05:27;101483;;;15.12
48628;BMP280;34424;52.234;6.500;2023-06-10T02:10:27;101483.6;;;15.1
48628;BMP280;34424;52.234;6.500;2023-06-10T02:15:27;101483.5;;;15.07
48628;BMP280;34424;52.234;6.500;2023-06-10T02:20:27;101485.8;;;14.96
48628;BMP280;34424;52.234;6.500;2023-06-10T02:25:27;101487.1;;;14.96
48628;BMP280;34424;52.234;6.500;2023-06-10T02:30:27;101490;;;14.94
48628;BMP280;34424;52.234;6.500;2023-06-10T02:35:27;101491.6;;;14.93
48628;BMP280;34424;52.234;6.500;2023-06-10T02:40:27;101490.4;;;14.9
48628;BMP280;34424;52.234;6.500;2023-06-10T02:45:27;101487.3;;;14.8
48628;BMP280;34424;52.234;6.500;2023-06-10T02:50:27;101485.9;;;14.72
48628;BMP280;34424;52.234;6.500;2023-06-10T02:55:27;101488.5;;;14.63
48628;BMP280;34424;52.234;6.500;2023-06-10T03:00:27;101489.6;;;14.61
48628;BMP280;34424;52.234;6.500;2023-06-10T03:05:27;101486.5;;;14.57
48628;BMP280;34424;52.234;6.500;2023-06-10T03:10:27;101487.1;;;14.57
48628;BMP280;34424;52.234;6.500;2023-06-10T03:15:27;101491.8;;;14.47
48628;BMP280;34424;52.234;6.500;2023-06-10T03:20:27;101497.4;;;14.49
48628;BMP280;34424;52.234;6.500;2023-06-10T03:25:27;101501.8;;;14.51
48628;BMP280;34424;52.234;6.500;2023-06-10T03:30:27;101509.1;;;14.51
48628;BMP280;34424;52.234;6.500;2023-06-10T03:35:27;101505.9;;;14.47
48628;BMP280;34424;52.234;6.500;2023-06-10T03:40:27;101512.9;;;14.46
48628;BMP280;34424;52.234;6.500;2023-06-10T03:45:27;101505.5;;;14.44
48628;BMP280;34424;52.234;6.500;2023-06-10T03:50:27;101514.6;;;14.43
48628;BMP280;34424;52.234;6.500;2023-06-10T03:55:27;101518;;;14.5
48628;BMP280;34424;52.234;6.500;2023-06-10T04:00:27;101513.5;;;14.57
48628;BMP280;34424;52.234;6.500;2023-06-10T04:05:27;101513;;;14.59
48628;BMP280;34424;52.234;6.500;2023-06-10T04:10:27;101516.9;;;14.65
48628;BMP280;34424;52.234;6.500;2023-06-10T04:15:27;101521.6;;;14.69
48628;BMP280;34424;52.234;6.500;2023-06-10T04:20:27;101523.3;;;14.77
48628;BMP280;34424;52.234;6.500;2023-06-10T04:25:27;101525.1;;;14.87
48628;BMP280;34424;52.234;6.500;2023-06-10T04:30:27;101528.6;;;14.96
48628;BMP280;34424;52.234;6.500;2023-06-10T04:35:27;101529.4;;;15.09
48628;BMP280;34424;52.234;6.500;2023-06-10T04:40:27;101533.8;;;15.21
48628;BMP280;34424;52.234;6.500;2023-06-10T04:45:27;101532;;;15.31
48628;BMP280;34424;52.234;6.500;2023-06-10T04:50:28;101536.7;;;15.45
48628;BMP280;34424;52.234;6.500;2023-06-10T04:55:27;101523.7;;;15.65
48628;BMP280;34424;52.234;6.500;2023-06-10T05:00:28;101537.6;;;16.92
48628;BMP280;34424;52.234;6.500;2023-06-10T05:05:27;101539.1;;;18.52
48628;BMP280;34424;52.234;6.500;2023-06-10T05:10:27;101538.6;;;19.52
48628;BMP280;34424;52.234;6.500;2023-06-10T05:15:27;101539.6;;;20.47
48628;BMP280;34424;52.234;6.500;2023-06-10T05:20:28;101538.9;;;20.87
48628;BMP280;34424;52.234;6.500;2023-06-10T05:25:28;101536.1;;;21.22
48628;BMP280;34424;52.234;6.500;2023-06-10T05:30:27;101537.9;;;21.48
48628;BMP280;34424;52.234;6.500;2023-06-10T05:35:28;101535.1;;;22.22
48628;BMP280;34424;52.234;6.500;2023-06-10T05:40:28;101542.9;;;22.49
48628;BMP280;34424;52.234;6.500;2023-06-10T05:45:28;101543.4;;;23.08
48628;BMP280;34424;52.234;6.500;2023-06-10T05:50:28;101545.9;;;23.85
48628;BMP280;34424;52.234;6.500;2023-06-10T05:55:28;101545.3;;;23.5
48628;BMP280;34424;52.234;6.500;2023-06-10T06:00:28;101549;;;23.93
48628;BMP280;34424;52.234;6.500;2023-06-10T06:05:28;101544.9;;;24.13
48628;BMP280;34424;52.234;6.500;2023-06-10T06:10:28;101549.7;;;24.35
48628;BMP280;34424;52.234;6.500;2023-06-10T06:15:28;101549.6;;;24.93
48628;BMP280;34424;52.234;6.500;2023-06-10T06:20:28;101556.2;;;24.97
48628;BMP280;34424;52.234;6.500;2023-06-10T06:25:28;101548.5;;;25.57
48628;BMP280;34424;52.234;6.500;2023-06-10T06:30:28;101551.1;;;25.71
48628;BMP280;34424;52.234;6.500;2023-06-10T06:35:29;101552.3;;;25.93
48628;BMP280;34424;52.234;6.500;2023-06-10T06:40:28;101552.7;;;26.19
48628;BMP280;34424;52.234;6.500;2023-06-10T06:45:28;101552.4;;;27
48628;BMP280;34424;52.234;6.500;2023-06-10T06:50:28;101558.4;;;27.4
48628;BMP280;34424;52.234;6.500;2023-06-10T06:55:28;101561.8;;;27.87
48628;BMP280;34424;52.234;6.500;2023-06-10T07:00:28;101567.6;;;28.23
48628;BMP280;34424;52.234;6.500;2023-06-10T07:05:28;101561;;;28.18
48628;BMP280;34424;52.234;6.500;2023-06-10T07:10:28;101566.5;;;28.29
48628;BMP280;34424;52.234;6.500;2023-06-10T07:15:28;101566.4;;;28.75
48628;BMP280;34424;52.234;6.500;2023-06-10T07:20:28;101564.2;;;29.18
48628;BMP280;34424;52.234;6.500;2023-06-10T07:25:28;101569.7;;;29.51
48628;BMP280;34424;52.234;6.500;2023-06-10T07:30:28;101572;;;30.05
48628;BMP280;34424;52.234;6.500;2023-06-10T07:35:28;101568.5;;;29.84
48628;BMP280;34424;52.234;6.500;2023-06-10T07:40:28;101573.9;;;31.16
48628;BMP280;34424;52.234;6.500;2023-06-10T07:45:28;101572.9;;;30.95
48628;BMP280;34424;52.234;6.500;2023-06-10T07:50:28;101579.3;;;31.56
48628;BMP280;34424;52.234;6.500;2023-06-10T07:55:28;101575.6;;;31.28
48628;BMP280;34424;52.234;6.500;2023-06-10T08:00:28;101577.8;;;31.49
48628;BMP280;34424;52.234;6.500;2023-06-10T08:05:28;101582.6;;;32.45
48628;BMP280;34424;52.234;6.500;2023-06-10T08:10:28;101584.5;;;31.68
48628;BMP280;34424;52.234;6.500;2023-06-10T08:15:28;101582.4;;;31.44
48628;BMP280;34424;52.234;6.500;2023-06-10T08:20:28;101589.4;;;31.89
48628;BMP280;34424;52.234;6.500;2023-06-10T08:25:28;101583.7;;;32
48628;BMP280;34424;52.234;6.500;2023-06-10T08:30:28;101585.5;;;32.65
48628;BMP280;34424;52.234;6.500;2023-06-10T08:35:28;101585;;;32.41
48628;BMP280;34424;52.234;6.500;2023-06-10T08:40:28;101580.9;;;32.69
48628;BMP280;34424;52.234;6.500;2023-06-10T08:45:28;101575.7;;;32.96
48628;BMP280;34424;52.234;6.500;2023-06-10T08:50:28;101575.5;;;32.9
48628;BMP280;34424;52.234;6.500;2023-06-10T08:55:29;101577.1;;;33.23
48628;BMP280;34424;52.234;6.500;2023-06-10T09:00:28;101572.6;;;33.63
48628;BMP280;34424;52.234;6.500;2023-06-10T09:05:28;101576.2;;;33.96
48628;BMP280;34424;52.234;6.500;2023-06-10T09:10:28;101575.2;;;34.82
48628;BMP280;34424;52.234;6.500;2023-06-10T09:15:28;101572;;;34.76
48628;BMP280;34424;52.234;6.500;2023-06-10T09:20:28;101569.2;;;34.08
48628;BMP280;34424;52.234;6.500;2023-06-10T09:25:38;101571.5;;;34.39
48628;BMP280;34424;52.234;6.500;2023-06-10T09:30:29;101566.2;;;34.68
48628;BMP280;34424;52.234;6.500;2023-06-10T09:35:29;101562.9;;;34.08
48628;BMP280;34424;52.234;6.500;2023-06-10T09:40:28;101562.6;;;33.75
48628;BMP280;34424;52.234;6.500;2023-06-10T09:45:31;101561.5;;;34.38
48628;BMP280;34424;52.234;6.500;2023-06-10T09:50:28;101562.2;;;34.44
48628;BMP280;34424;52.234;6.500;2023-06-10T09:55:28;101561.9;;;34.46
48628;BMP280;34424;52.234;6.500;2023-06-10T10:00:28;101561.3;;;34.11
48628;BMP280;34424;52.234;6.500;2023-06-10T10:05:28;101556.3;;;34.19
48628;BMP280;34424;52.234;6.500;2023-06-10T10:10:28;101553.5;;;34.93
48628;BMP280;34424;52.234;6.500;2023-06-10T10:15:28;101556.2;;;35.13
48628;BMP280;34424;52.234;6.500;2023-06-10T10:20:29;101553;;;35.54
48628;BMP280;34424;52.234;6.500;2023-06-10T10:25:28;101544.5;;;34.92
48628;BMP280;34424;52.234;6.500;2023-06-10T10:30:28;101541.5;;;34.81
48628;BMP280;34424;52.234;6.500;2023-06-10T10:35:28;101541.1;;;34.95
48628;BMP280;34424;52.234;6.500;2023-06-10T10:40:28;101541.4;;;34.8
48628;BMP280;34424;52.234;6.500;2023-06-10T10:45:28;101535.9;;;35.4
48628;BMP280;34424;52.234;6.500;2023-06-10T10:50:28;101536.9;;;34.66
48628;BMP280;34424;52.234;6.500;2023-06-10T10:55:28;101531.8;;;35.45
48628;BMP280;34424;52.234;6.500;2023-06-10T11:00:29;101529.6;;;35.55
48628;BMP280;34424;52.234;6.500;2023-06-10T11:05:35;101530.7;;;35.54
48628;BMP280;34424;52.234;6.500;2023-06-10T11:10:34;101520.9;;;34.87
48628;BMP280;34424;52.234;6.500;2023-06-10T11:15:28;101528.5;;;34.76
48628;BMP280;34424;52.234;6.500;2023-06-10T11:25:38;101508.3;;;35.23
48628;BMP280;34424;52.234;6.500;2023-06-10T11:30:29;101508.3;;;35.24
48628;BMP280;34424;52.234;6.500;2023-06-10T11:35:28;101504.5;;;34.76
48628;BMP280;34424;52.234;6.500;2023-06-10T11:40:28;101487.4;;;34.3
48628;BMP280;34424;52.234;6.500;2023-06-10T11:45:28;101499.5;;;34.51
48628;BMP280;34424;52.234;6.500;2023-06-10T11:50:32;101495.2;;;34.82
48628;BMP280;34424;52.234;6.500;2023-06-10T11:55:28;101500.5;;;34.75
48628;BMP280;34424;52.234;6.500;2023-06-10T12:00:28;101496.8;;;34.1
48628;BMP280;34424;52.234;6.500;2023-06-10T12:05:28;101494.8;;;34.73
48628;BMP280;34424;52.234;6.500;2023-06-10T12:10:28;101495.9;;;34.68
48628;BMP280;34424;52.234;6.500;2023-06-10T12:15:28;101490.6;;;34.87
48628;BMP280;34424;52.234;6.500;2023-06-10T12:20:29;101483.5;;;34.73
48628;BMP280;34424;52.234;6.500;2023-06-10T12:25:28;101479.6;;;34.83
48628;BMP280;34424;52.234;6.500;2023-06-10T12:30:28;101473.6;;;35.12
48628;BMP280;34424;52.234;6.500;2023-06-10T12:35:28;101472.9;;;34.87
48628;BMP280;34424;52.234;6.500;2023-06-10T12:40:31;101473.2;;;34.47
48628;BMP280;34424;52.234;6.500;2023-06-10T12:45:31;101462;;;34.15
48628;BMP280;34424;52.234;6.500;2023-06-10T12:50:28;101459.6;;;33.97
48628;BMP280;34424;52.234;6.500;2023-06-10T12:55:28;101456.1;;;34
48628;BMP280;34424;52.234;6.500;2023-06-10T13:00:28;101462.5;;;33.87
48628;BMP280;34424;52.234;6.500;2023-06-10T13:05:28;101457.3;;;34.07
48628;BMP280;34424;52.234;6.500;2023-06-10T13:10:28;101452.6;;;34.23
48628;BMP280;34424;52.234;6.500;2023-06-10T13:15:28;101446.2;;;34.12
48628;BMP280;34424;52.234;6.500;2023-06-10T13:20:28;101443.5;;;33.93
48628;BMP280;34424;52.234;6.500;2023-06-10T13:25:28;101442.3;;;33
48628;BMP280;34424;52.234;6.500;2023-06-10T13:30:28;101441.7;;;33.12
48628;BMP280;34424;52.234;6.500;2023-06-10T13:35:28;101434.5;;;33.03
48628;BMP280;34424;52.234;6.500;2023-06-10T13:40:28;101430.5;;;32.88
48628;BMP280;34424;52.234;6.500;2023-06-10T13:45:28;101426.8;;;32.54
48628;BMP280;34424;52.234;6.500;2023-06-10T13:50:28;101425.8;;;32.77
48628;BMP280;34424;52.234;6.500;2023-06-10T13:55:28;101418.9;;;32.6
48628;BMP280;34424;52.234;6.500;2023-06-10T14:00:28;101422.4;;;32.31
48628;BMP280;34424;52.234;6.500;2023-06-10T14:05:28;101422.7;;;31.84
48628;BMP280;34424;52.234;6.500;2023-06-10T14:10:28;101416.8;;;31.84
48628;BMP280;34424;52.234;6.500;2023-06-10T14:15:28;101414.6;;;31.84
48628;BMP280;34424;52.234;6.500;2023-06-10T14:20:28;101417.5;;;32.03
48628;BMP280;34424;52.234;6.500;2023-06-10T14:25:28;101414.2;;;31.89
48628;BMP280;34424;52.234;6.500;2023-06-10T14:30:28;101406.7;;;31.74
48628;BMP280;34424;52.234;6.500;2023-06-10T14:35:28;101409.5;;;31.67
48628;BMP280;34424;52.234;6.500;2023-06-10T14:40:28;101406.6;;;31.75
48628;BMP280;34424;52.234;6.500;2023-06-10T14:45:28;101402.6;;;31.87
48628;BMP280;34424;52.234;6.500;2023-06-10T14:50:28;101386.3;;;31.75
48628;BMP280;34424;52.234;6.500;2023-06-10T14:55:28;101394;;;31.99
48628;BMP280;34424;52.234;6.500;2023-06-10T15:00:28;101393.3;;;32.01
48628;BMP280;34424;52.234;6.500;2023-06-10T15:05:28;101390.3;;;31.9
48628;BMP280;34424;52.234;6.500;2023-06-10T15:10:28;101382.7;;;32.48
48628;BMP280;34424;52.234;6.500;2023-06-10T15:15:28;101380;;;32.91
48628;BMP280;34424;52.234;6.500;2023-06-10T15:20:28;101373.7;;;33.01
48628;BMP280;34424;52.234;6.500;2023-06-10T15:25:28;101373;;;32.69
48628;BMP280;34424;52.234;6.500;2023-06-10T15:30:28;101377.7;;;33.08
48628;BMP280;34424;52.234;6.500;2023-06-10T15:35:28;101372.7;;;33.29
48628;BMP280;34424;52.234;6.500;2023-06-10T15:40:28;101371.3;;;33.48
48628;BMP280;34424;52.234;6.500;2023-06-10T15:45:28;101363.8;;;33.62
48628;BMP280;34424;52.234;6.500;2023-06-10T15:50:28;101353.9;;;33.21
48628;BMP280;34424;52.234;6.500;2023-06-10T15:55:28;101354.8;;;32.82
48628;BMP280;34424;52.234;6.500;2023-06-10T16:00:28;101350.8;;;32.77
48628;BMP280;34424;52.234;6.500;2023-06-10T16:05:28;101351;;;33
48628;BMP280;34424;52.234;6.500;2023-06-10T16:10:28;101347.7;;;32.49
48628;BMP280;34424;52.234;6.500;2023-06-10T16:15:28;101351.8;;;32.61
48628;BMP280;34424;52.234;6.500;2023-06-10T16:20:28;101346.7;;;32.52
48628;BMP280;34424;52.234;6.500;2023-06-10T16:25:28;101345.5;;;32.85
48628;BMP280;34424;52.234;6.500;2023-06-10T16:30:28;101348.9;;;33.04
48628;BMP280;34424;52.234;6.500;2023-06-10T16:35:28;101339.9;;;32.77
48628;BMP280;34424;52.234;6.500;2023-06-10T16:40:28;101346.9;;;32.99
48628;BMP280;34424;52.234;6.500;2023-06-10T16:45:28;101354.2;;;32.56
48628;BMP280;34424;52.234;6.500;2023-06-10T16:50:28;101357.3;;;32.66
48628;BMP280;34424;52.234;6.500;2023-06-10T16:55:28;101360.4;;;32.46
48628;BMP280;34424;52.234;6.500;2023-06-10T17:00:28;101362.5;;;33.03
48628;BMP280;34424;52.234;6.500;2023-06-10T17:05:28;101359.6;;;32.71
48628;BMP280;34424;52.234;6.500;2023-06-10T17:10:28;101357.3;;;32.67
48628;BMP280;34424;52.234;6.500;2023-06-10T17:15:28;101354;;;32.82
48628;BMP280;34424;52.234;6.500;2023-06-10T17:20:28;101356.9;;;32.21
48628;BMP280;34424;52.234;6.500;2023-06-10T17:25:28;101360.5;;;32.22
48628;BMP280;34424;52.234;6.500;2023-06-10T17:30:28;101359.2;;;32.44
48628;BMP280;34424;52.234;6.500;2023-06-10T17:35:28;101358.2;;;32.09
48628;BMP280;34424;52.234;6.500;2023-06-10T17:40:28;101358.9;;;32.12
48628;BMP280;34424;52.234;6.500;2023-06-10T17:45:28;101367.2;;;31.49
48628;BMP280;34424;52.234;6.500;2023-06-10T17:50:28;101368.9;;;31.45
48628;BMP280;34424;52.234;6.500;2023-06-10T17:55:28;101371.8;;;30.9
48628;BMP280;34424;52.234;6.500;2023-06-10T18:00:28;101370.5;;;29.61
48628;BMP280;34424;52.234;6.500;2023-06-10T18:05:28;101374.5;;;28.79
48628;BMP280;34424;52.234;6.500;2023-06-10T18:10:28;101376.6;;;28.14
48628;BMP280;34424;52.234;6.500;2023-06-10T18:15:28;101377.2;;;27.67
48628;BMP280;34424;52.234;6.500;2023-06-10T18:20:28;101380;;;27.29
48628;BMP280;34424;52.234;6.500;2023-06-10T18:25:28;101381.8;;;26.97
48628;BMP280;34424;52.234;6.500;2023-06-10T18:30:28;101379;;;26.72
48628;BMP280;34424;52.234;6.500;2023-06-10T18:35:28;101387.3;;;26.47
48628;BMP280;34424;52.234;6.500;2023-06-10T18:40:28;101386.1;;;26.24
48628;BMP280;34424;52.234;6.500;2023-06-10T18:45:28;101390.4;;;26.02
48628;BMP280;34424;52.234;6.500;2023-06-10T18:50:28;101395.2;;;25.76
48628;BMP280;34424;52.234;6.500;2023-06-10T18:55:28;101398.3;;;25.54
48628;BMP280;34424;52.234;6.500;2023-06-10T19:00:28;101397.8;;;25.24
48628;BMP280;34424;52.234;6.500;2023-06-10T19:05:28;101399.3;;;24.97
48628;BMP280;34424;52.234;6.500;2023-06-10T19:10:29;101404;;;24.71
48628;BMP280;34424;52.234;6.500;2023-06-10T19:15:28;101408.6;;;24.41
48628;BMP280;34424;52.234;6.500;2023-06-10T19:20:28;101410.3;;;24.11
48628;BMP280;34424;52.234;6.500;2023-06-10T19:25:28;101414.6;;;23.83
48628;BMP280;34424;52.234;6.500;2023-06-10T19:30:28;101419;;;23.54
48628;BMP280;34424;52.234;6.500;2023-06-10T19:35:28;101422.6;;;23.26
48628;BMP280;34424;52.234;6.500;2023-06-10T19:40:28;101426.3;;;23.02
48628;BMP280;34424;52.234;6.500;2023-06-10T19:45:28;101433.6;;;22.79
48628;BMP280;34424;52.234;6.500;2023-06-10T19:50:28;101436;;;22.56
48628;BMP280;34424;52.234;6.500;2023-06-10T19:55:28;101440.8;;;22.37
48628;BMP280;34424;52.234;6.500;2023-06-10T20:00:28;101444.8;;;22.2
48628;BMP280;34424;52.234;6.500;2023-06-10T20:05:28;101451.9;;;21.97
48628;BMP280;34424;52.234;6.500;2023-06-10T20:10:28;101456.8;;;21.71
48628;BMP280;34424;52.234;6.500;2023-06-10T20:15:28;101456.9;;;21.52
48628;BMP280;34424;52.234;6.500;2023-06-10T20:20:28;101458.1;;;21.39
48628;BMP280;34424;52.234;6.500;2023-06-10T20:25:28;101466.8;;;21.25
48628;BMP280;34424;52.234;6.500;2023-06-10T20:30:29;101474.1;;;21.16
48628;BMP280;34424;52.234;6.500;2023-06-10T20:35:28;101468.9;;;21
48628;BMP280;34424;52.234;6.500;2023-06-10T20:40:29;101470.6;;;20.89
48628;BMP280;34424;52.234;6.500;2023-06-10T20:45:29;101475.8;;;20.83
48628;BMP280;34424;52.234;6.500;2023-06-10T20:50:29;101479.1;;;20.73
48628;BMP280;34424;52.234;6.500;2023-06-10T20:55:29;101475.8;;;20.68
48628;BMP280;34424;52.234;6.500;2023-06-10T21:00:29;101482.1;;;20.64
48628;BMP280;34424;52.234;6.500;2023-06-10T21:05:29;101482.1;;;20.52
48628;BMP280;34424;52.234;6.500;2023-06-10T21:10:29;101484.9;;;20.35
48628;BMP280;34424;52.234;6.500;2023-06-10T21:15:29;101486.6;;;20.17
48628;BMP280;34424;52.234;6.500;2023-06-10T21:20:29;101488.4;;;20.13
48628;BMP280;34424;52.234;6.500;2023-06-10T21:25:29;101492.5;;;20.1
48628;BMP280;34424;52.234;6.500;2023-06-10T21:30:29;101493;;;20.03
48628;BMP280;34424;52.234;6.500;2023-06-10T21:35:29;101489.2;;;19.95
48628;BMP280;34424;52.234;6.500;2023-06-10T21:40:29;101493.4;;;19.93
48628;BMP280;34424;52.234;6.500;2023-06-10T21:45:29;101491;;;19.83
48628;BMP280;34424;52.234;6.500;2023-06-10T21:50:29;101495.6;;;19.8
48628;BMP280;34424;52.234;6.500;2023-06-10T21:55:29;101489.4;;;19.65
48628;BMP280;34424;52.234;6.500;2023-06-10T22:00:29;101493.9;;;19.63
48628;BMP280;34424;52.234;6.500;2023-06-10T22:05:29;101498.9;;;19.66
48628;BMP280;34424;52.234;6.500;2023-06-10T22:10:29;101494.4;;;19.57
48628;BMP280;34424;52.234;6.500;2023-06-10T22:15:29;101496.5;;;19.46
48628;BMP280;34424;52.234;6.500;2023-06-10T22:20:29;101499.5;;;19.39
48628;BMP280;34424;52.234;6.500;2023-06-10T22:25:29;101503.5;;;19.31
48628;BMP280;34424;52.234;6.500;2023-06-10T22:30:29;101495.9;;;19.32
48628;BMP280;34424;52.234;6.500;2023-06-10T22:35:29;101496.5;;;19.22
48628;BMP280;34424;52.234;6.500;2023-06-10T22:40:29;101494.3;;;19.11
48628;BMP280;34424;52.234;6.500;2023-06-10T22:45:29;101493;;;18.98
48628;BMP280;34424;52.234;6.500;2023-06-10T22:50:29;101497;;;18.92
48628;BMP280;34424;52.234;6.500;2023-06-10T22:55:29;101499.3;;;18.82
48628;BMP280;34424;52.234;6.500;2023-06-10T23:00:29;101498.5;;;18.74
48628;BMP280;34424;52.234;6.500;2023-06-10T23:05:29;101502.9;;;18.75
48628;BMP280;34424;52.234;6.500;2023-06-10T23:10:29;101502.3;;;18.71
48628;BMP280;34424;52.234;6.500;2023-06-10T23:15:29;101500.9;;;18.67
48628;BMP280;34424;52.234;6.500;2023-06-10T23:20:29;101493.4;;;18.45
48628;BMP280;34424;52.234;6.500;2023-06-10T23:25:29;101500.5;;;18.36
48628;BMP280;34424;52.234;6.500;2023-06-10T23:30:29;101501.9;;;18.22
48628;BMP280;34424;52.234;6.500;2023-06-10T23:35:29;101509.7;;;18.11
48628;BMP280;34424;52.234;6.500;2023-06-10T23:40:29;101511.5;;;17.99
48628;BMP280;34424;52.234;6.500;2023-06-10T23:45:29;101511.1;;;17.87
48628;BMP280;34424;52.234;6.500;2023-06-10T23:50:29;101513.2;;;17.81
48628;BMP280;34424;52.234;6.500;2023-06-10T23:55:29;101511.1;;;17.76
